sensor_id;sensor_type;location;lat;lon;timestamp;temperature;humidity
4548;DHT22;2286;51.570;7.090;2023-04-06T00:00:10;2.80;99.90
4548;DHT22;2286;51.570;7.090;2023-04-06T00:02:37;2.70;99.90
4548;DHT22;2286;51.570;7.090;2023-04-06T00:05:07;2.60;99.90
4548;DHT22;2286;51.570;7.090;2023-04-06T00:07:34;2.60;99.90
4548;DHT22;2286;51.570;7.090;2023-04-06T00:10:01;2.60;99.90
4548;DHT22;2286;51.570;7.090;2023-04-06T00:12:28;2.50;99.90
4548;DHT22;2286;51.570;7.090;2023-04-06T00:14:55;2.50;99.90
4548;DHT22;2286;51.570;7.090;2023-04-06T00:17:22;2.50;99.90
4548;DHT22;2286;51.570;7.090;2023-04-06T00:19:49;2.40;99.90
4548;DHT22;2286;51.570;7.090;2023-04-06T00:22:17;2.40;99.90
4548;DHT22;2286;51.570;7.090;2023-04-06T00:24:44;2.40;99.90
4548;DHT22;2286;51.570;7.090;2023-04-06T00:27:12;2.40;99.90
4548;DHT22;2286;51.570;7.090;2023-04-06T00:29:39;2.30;99.90
4548;DHT22;2286;51.570;7.090;2023-04-06T00:32:06;2.30;99.90
4548;DHT22;2286;51.570;7.090;2023-04-06T00:34:33;2.20;99.90
4548;DHT22;2286;51.570;7.090;2023-04-06T00:37:00;2.20;99.90
4548;DHT22;2286;51.570;7.090;2023-04-06T00:39:29;2.20;99.90
4548;DHT22;2286;51.570;7.090;2023-04-06T00:41:55;2.20;99.90
4548;DHT22;2286;51.570;7.090;2023-04-06T00:44:23;2.10;99.90
4548;DHT22;2286;51.570;7.090;2023-04-06T00:46:50;2.10;99.90
4548;DHT22;2286;51.570;7.090;2023-04-06T00:49:17;2.00;99.90
4548;DHT22;2286;51.570;7.090;2023-04-06T00:51:44;2.00;99.90
4548;DHT22;2286;51.570;7.090;2023-04-06T00:54:11;2.00;99.90
4548;DHT22;2286;51.570;7.090;2023-04-06T00:56:39;2.00;99.90
4548;DHT22;2286;51.570;7.090;2023-04-06T00:59:08;1.90;99.90
4548;DHT22;2286;51.570;7.090;2023-04-06T01:01:35;1.90;99.90
4548;DHT22;2286;51.570;7.090;2023-04-06T02:48:33;0.70;99.90
4548;DHT22;2286;51.570;7.090;2023-04-06T02:51:01;0.70;99.90
4548;DHT22;2286;51.570;7.090;2023-04-06T02:53:29;0.70;99.90
4548;DHT22;2286;51.570;7.090;2023-04-06T02:55:56;0.60;99.90
4548;DHT22;2286;51.570;7.090;2023-04-06T02:58:23;0.50;99.90
4548;DHT22;2286;51.570;7.090;2023-04-06T03:00:50;0.60;99.90
4548;DHT22;2286;51.570;7.090;2023-04-06T03:03:17;0.50;99.90
4548;DHT22;2286;51.570;7.090;2023-04-06T03:05:46;0.50;99.90
4548;DHT22;2286;51.570;7.090;2023-04-06T03:08:13;0.50;99.90
4548;DHT22;2286;51.570;7.090;2023-04-06T03:10:41;0.40;99.90
4548;DHT22;2286;51.570;7.090;2023-04-06T03:13:08;0.40;99.90
4548;DHT22;2286;51.570;7.090;2023-04-06T03:15:35;0.40;99.90
4548;DHT22;2286;51.570;7.090;2023-04-06T03:18:02;0.40;99.90
4548;DHT22;2286;51.570;7.090;2023-04-06T03:20:29;0.40;99.90
4548;DHT22;2286;51.570;7.090;2023-04-06T03:22:58;0.40;99.90
4548;DHT22;2286;51.570;7.090;2023-04-06T03:25:25;0.30;99.90
4548;DHT22;2286;51.570;7.090;2023-04-06T03:27:52;0.30;99.90
4548;DHT22;2286;51.570;7.090;2023-04-06T03:30:19;0.30;99.90
4548;DHT22;2286;51.570;7.090;2023-04-06T03:32:47;0.30;99.90
4548;DHT22;2286;51.570;7.090;2023-04-06T03:35:14;0.30;99.90
4548;DHT22;2286;51.570;7.090;2023-04-06T03:37:41;0.40;99.90
4548;DHT22;2286;51.570;7.090;2023-04-06T03:40:10;0.30;99.90
4548;DHT22;2286;51.570;7.090;2023-04-06T03:42:38;0.20;99.90
4548;DHT22;2286;51.570;7.090;2023-04-06T03:45:06;0.20;99.90
4548;DHT22;2286;51.570;7.090;2023-04-06T03:47:33;0.20;99.90
4548;DHT22;2286;51.570;7.090;2023-04-06T03:50:00;0.20;99.90
4548;DHT22;2286;51.570;7.090;2023-04-06T03:52:28;0.20;99.90
4548;DHT22;2286;51.570;7.090;2023-04-06T03:54:56;0.10;99.90
4548;DHT22;2286;51.570;7.090;2023-04-06T03:57:24;0.10;99.90
4548;DHT22;2286;51.570;7.090;2023-04-06T03:59:51;0.10;99.90
4548;DHT22;2286;51.570;7.090;2023-04-06T04:02:19;0.10;99.90
4548;DHT22;2286;51.570;7.090;2023-04-06T04:04:46;0.10;1.00
4548;DHT22;2286;51.570;7.090;2023-04-06T04:07:13;0.20;1.00
4548;DHT22;2286;51.570;7.090;2023-04-06T04:09:40;0.20;1.00
4548;DHT22;2286;51.570;7.090;2023-04-06T04:12:07;0.20;1.00
4548;DHT22;2286;51.570;7.090;2023-04-06T04:14:36;0.20;1.00
4548;DHT22;2286;51.570;7.090;2023-04-06T04:17:03;0.10;1.00
4548;DHT22;2286;51.570;7.090;2023-04-06T04:19:30;0.10;1.00
4548;DHT22;2286;51.570;7.090;2023-04-06T04:21:57;0.00;1.00
4548;DHT22;2286;51.570;7.090;2023-04-06T04:24:24;0.00;1.00
4548;DHT22;2286;51.570;7.090;2023-04-06T04:26:52;0.00;1.00
4548;DHT22;2286;51.570;7.090;2023-04-06T04:29:19;0.00;1.00
4548;DHT22;2286;51.570;7.090;2023-04-06T04:31:49;0.00;1.00
4548;DHT22;2286;51.570;7.090;2023-04-06T04:34:18;0.10;1.00
4548;DHT22;2286;51.570;7.090;2023-04-06T04:36:46;0.00;1.00
4548;DHT22;2286;51.570;7.090;2023-04-06T04:39:13;0.00;1.00
4548;DHT22;2286;51.570;7.090;2023-04-06T04:41:40;-0.10;1.00
4548;DHT22;2286;51.570;7.090;2023-04-06T04:44:07;-0.10;1.00
4548;DHT22;2286;51.570;7.090;2023-04-06T04:46:35;-0.10;1.00
4548;DHT22;2286;51.570;7.090;2023-04-06T04:49:03;0.00;1.00
4548;DHT22;2286;51.570;7.090;2023-04-06T04:51:30;0.00;1.00
4548;DHT22;2286;51.570;7.090;2023-04-06T04:53:58;0.00;1.00
4548;DHT22;2286;51.570;7.090;2023-04-06T04:56:25;-0.10;1.00
4548;DHT22;2286;51.570;7.090;2023-04-06T04:58:53;-0.10;1.00
4548;DHT22;2286;51.570;7.090;2023-04-06T05:01:20;-0.10;1.00
4548;DHT22;2286;51.570;7.090;2023-04-06T05:03:47;-0.10;1.00
4548;DHT22;2286;51.570;7.090;2023-04-06T05:06:16;-0.10;1.00
4548;DHT22;2286;51.570;7.090;2023-04-06T05:08:43;-0.10;1.00
4548;DHT22;2286;51.570;7.090;2023-04-06T05:11:11;0.00;1.00
4548;DHT22;2286;51.570;7.090;2023-04-06T05:13:38;0.00;1.00
4548;DHT22;2286;51.570;7.090;2023-04-06T05:16:06;0.00;1.00
4548;DHT22;2286;51.570;7.090;2023-04-06T05:18:33;0.00;1.00
4548;DHT22;2286;51.570;7.090;2023-04-06T05:21:00;0.10;1.00
4548;DHT22;2286;51.570;7.090;2023-04-06T05:23:29;0.10;1.00
4548;DHT22;2286;51.570;7.090;2023-04-06T05:25:56;0.10;1.00
4548;DHT22;2286;51.570;7.090;2023-04-06T05:28:23;0.10;1.00
4548;DHT22;2286;51.570;7.090;2023-04-06T05:30:51;0.10;1.00
4548;DHT22;2286;51.570;7.090;2023-04-06T05:33:18;0.20;1.00
4548;DHT22;2286;51.570;7.090;2023-04-06T05:35:45;0.20;1.00
4548;DHT22;2286;51.570;7.090;2023-04-06T05:38:13;0.20;1.00
4548;DHT22;2286;51.570;7.090;2023-04-06T05:40:41;0.20;1.00
4548;DHT22;2286;51.570;7.090;2023-04-06T05:43:09;0.30;1.00
4548;DHT22;2286;51.570;7.090;2023-04-06T05:45:36;0.40;1.00
4548;DHT22;2286;51.570;7.090;2023-04-06T05:48:03;0.40;1.00
4548;DHT22;2286;51.570;7.090;2023-04-06T05:50:31;0.50;1.00
4548;DHT22;2286;51.570;7.090;2023-04-06T05:52:58;0.50;1.00
4548;DHT22;2286;51.570;7.090;2023-04-06T05:55:25;0.60;1.00
4548;DHT22;2286;51.570;7.090;2023-04-06T05:57:55;0.70;1.00
4548;DHT22;2286;51.570;7.090;2023-04-06T06:00:22;0.70;1.00
4548;DHT22;2286;51.570;7.090;2023-04-06T06:02:49;0.80;1.00
4548;DHT22;2286;51.570;7.090;2023-04-06T06:05:16;0.90;1.00
4548;DHT22;2286;51.570;7.090;2023-04-06T06:07:43;0.90;1.00
4548;DHT22;2286;51.570;7.090;2023-04-06T06:10:11;1.00;1.00
4548;DHT22;2286;51.570;7.090;2023-04-06T06:12:38;1.10;1.00
4548;DHT22;2286;51.570;7.090;2023-04-06T06:15:08;1.20;1.00
4548;DHT22;2286;51.570;7.090;2023-04-06T06:17:35;1.30;1.00
4548;DHT22;2286;51.570;7.090;2023-04-06T06:20:03;1.50;1.00
4548;DHT22;2286;51.570;7.090;2023-04-06T06:22:31;1.60;1.00
4548;DHT22;2286;51.570;7.090;2023-04-06T06:24:58;1.70;1.00
4548;DHT22;2286;51.570;7.090;2023-04-06T06:27:25;1.80;1.00
4548;DHT22;2286;51.570;7.090;2023-04-06T06:29:52;1.90;1.00
4548;DHT22;2286;51.570;7.090;2023-04-06T06:32:21;2.00;99.90
4548;DHT22;2286;51.570;7.090;2023-04-06T06:34:48;2.10;99.90
4548;DHT22;2286;51.570;7.090;2023-04-06T06:37:15;2.30;99.90
4548;DHT22;2286;51.570;7.090;2023-04-06T06:39:42;2.40;99.90
4548;DHT22;2286;51.570;7.090;2023-04-06T06:42:09;2.60;99.90
4548;DHT22;2286;51.570;7.090;2023-04-06T06:44:37;2.70;99.90
4548;DHT22;2286;51.570;7.090;2023-04-06T06:47:04;2.80;99.90
4548;DHT22;2286;51.570;7.090;2023-04-06T06:49:32;2.90;99.90
4548;DHT22;2286;51.570;7.090;2023-04-06T06:52:00;3.20;99.90
4548;DHT22;2286;51.570;7.090;2023-04-06T06:54:27;3.40;99.90
4548;DHT22;2286;51.570;7.090;2023-04-06T06:56:54;3.60;99.90
4548;DHT22;2286;51.570;7.090;2023-04-06T06:59:21;3.70;99.90
4548;DHT22;2286;51.570;7.090;2023-04-06T07:01:49;3.80;99.90
4548;DHT22;2286;51.570;7.090;2023-04-06T07:04:16;3.80;99.90
4548;DHT22;2286;51.570;7.090;2023-04-06T07:06:45;3.90;99.90
4548;DHT22;2286;51.570;7.090;2023-04-06T07:09:12;4.00;99.90
4548;DHT22;2286;51.570;7.090;2023-04-06T07:11:39;4.10;99.90
4548;DHT22;2286;51.570;7.090;2023-04-06T07:14:06;4.20;99.90
4548;DHT22;2286;51.570;7.090;2023-04-06T07:16:34;4.40;99.90
4548;DHT22;2286;51.570;7.090;2023-04-06T07:19:01;4.50;99.90
4548;DHT22;2286;51.570;7.090;2023-04-06T07:21:28;4.60;99.90
4548;DHT22;2286;51.570;7.090;2023-04-06T07:23:57;4.80;99.90
4548;DHT22;2286;51.570;7.090;2023-04-06T07:26:24;4.90;99.90
4548;DHT22;2286;51.570;7.090;2023-04-06T07:28:51;5.00;99.90
4548;DHT22;2286;51.570;7.090;2023-04-06T07:31:18;5.20;99.90
4548;DHT22;2286;51.570;7.090;2023-04-06T07:33:46;5.20;99.90
4548;DHT22;2286;51.570;7.090;2023-04-06T07:36:13;5.40;99.90
4548;DHT22;2286;51.570;7.090;2023-04-06T07:38:40;5.50;99.90
4548;DHT22;2286;51.570;7.090;2023-04-06T07:41:08;5.60;99.90
4548;DHT22;2286;51.570;7.090;2023-04-06T07:43:36;5.80;99.90
4548;DHT22;2286;51.570;7.090;2023-04-06T07:46:04;6.00;99.90
4548;DHT22;2286;51.570;7.090;2023-04-06T07:48:31;6.20;99.90
4548;DHT22;2286;51.570;7.090;2023-04-06T07:51:01;6.40;99.90
4548;DHT22;2286;51.570;7.090;2023-04-06T07:53:29;6.60;99.90
4548;DHT22;2286;51.570;7.090;2023-04-06T07:55:56;6.70;99.90
4548;DHT22;2286;51.570;7.090;2023-04-06T07:58:24;7.00;99.90
4548;DHT22;2286;51.570;7.090;2023-04-06T08:00:52;7.20;99.90
4548;DHT22;2286;51.570;7.090;2023-04-06T08:03:20;7.40;99.90
4548;DHT22;2286;51.570;7.090;2023-04-06T08:05:51;7.50;99.90
4548;DHT22;2286;51.570;7.090;2023-04-06T08:08:18;7.70;99.90
4548;DHT22;2286;51.570;7.090;2023-04-06T08:10:47;8.00;99.90
4548;DHT22;2286;51.570;7.090;2023-04-06T08:13:14;8.30;99.90
4548;DHT22;2286;51.570;7.090;2023-04-06T08:15:43;8.60;99.90
4548;DHT22;2286;51.570;7.090;2023-04-06T08:18:11;8.90;99.90
4548;DHT22;2286;51.570;7.090;2023-04-06T08:20:38;9.10;99.90
4548;DHT22;2286;51.570;7.090;2023-04-06T08:23:05;9.30;99.90
4548;DHT22;2286;51.570;7.090;2023-04-06T08:25:35;9.70;99.90
4548;DHT22;2286;51.570;7.090;2023-04-06T08:28:03;10.00;99.90
4548;DHT22;2286;51.570;7.090;2023-04-06T08:30:30;10.30;99.90
4548;DHT22;2286;51.570;7.090;2023-04-06T08:32:58;10.40;99.90
4548;DHT22;2286;51.570;7.090;2023-04-06T08:35:26;10.60;99.90
4548;DHT22;2286;51.570;7.090;2023-04-06T08:37:53;11.00;99.90
4548;DHT22;2286;51.570;7.090;2023-04-06T08:40:20;11.10;99.90
4548;DHT22;2286;51.570;7.090;2023-04-06T08:42:50;11.40;99.90
4548;DHT22;2286;51.570;7.090;2023-04-06T08:45:19;11.60;99.90
4548;DHT22;2286;51.570;7.090;2023-04-06T08:47:47;11.80;99.90
4548;DHT22;2286;51.570;7.090;2023-04-06T08:50:17;12.00;99.90
4548;DHT22;2286;51.570;7.090;2023-04-06T08:52:47;12.10;99.90
4548;DHT22;2286;51.570;7.090;2023-04-06T08:55:14;12.00;99.90
4548;DHT22;2286;51.570;7.090;2023-04-06T08:57:42;11.80;99.90
4548;DHT22;2286;51.570;7.090;2023-04-06T09:00:11;12.00;99.90
4548;DHT22;2286;51.570;7.090;2023-04-06T09:02:39;12.10;99.90
4548;DHT22;2286;51.570;7.090;2023-04-06T09:05:08;12.10;99.90
4548;DHT22;2286;51.570;7.090;2023-04-06T09:07:37;12.20;99.90
4548;DHT22;2286;51.570;7.090;2023-04-06T09:10:05;12.30;99.90
4548;DHT22;2286;51.570;7.090;2023-04-06T09:12:34;12.20;99.90
4548;DHT22;2286;51.570;7.090;2023-04-06T09:15:01;12.40;99.90
4548;DHT22;2286;51.570;7.090;2023-04-06T09:17:30;12.60;99.90
4548;DHT22;2286;51.570;7.090;2023-04-06T09:19:59;12.70;99.90
4548;DHT22;2286;51.570;7.090;2023-04-06T09:22:36;12.80;99.90
4548;DHT22;2286;51.570;7.090;2023-04-06T09:25:05;12.90;99.90
4548;DHT22;2286;51.570;7.090;2023-04-06T09:27:33;12.90;99.90
4548;DHT22;2286;51.570;7.090;2023-04-06T09:30:05;13.10;99.90
4548;DHT22;2286;51.570;7.090;2023-04-06T09:32:44;13.00;99.90
4548;DHT22;2286;51.570;7.090;2023-04-06T09:35:12;13.00;99.90
4548;DHT22;2286;51.570;7.090;2023-04-06T09:37:41;13.20;99.90
4548;DHT22;2286;51.570;7.090;2023-04-06T09:40:09;13.30;99.90
4548;DHT22;2286;51.570;7.090;2023-04-06T09:42:37;13.20;99.90
4548;DHT22;2286;51.570;7.090;2023-04-06T09:45:05;13.30;99.90
4548;DHT22;2286;51.570;7.090;2023-04-06T09:47:33;13.30;99.90
4548;DHT22;2286;51.570;7.090;2023-04-06T09:50:03;13.50;99.90
4548;DHT22;2286;51.570;7.090;2023-04-06T09:52:32;13.60;99.90
4548;DHT22;2286;51.570;7.090;2023-04-06T09:55:02;13.90;99.90
4548;DHT22;2286;51.570;7.090;2023-04-06T09:57:34;14.20;99.90
4548;DHT22;2286;51.570;7.090;2023-04-06T10:00:04;14.60;99.90
4548;DHT22;2286;51.570;7.090;2023-04-06T10:02:45;14.60;99.90
4548;DHT22;2286;51.570;7.090;2023-04-06T10:05:19;14.90;99.90
4548;DHT22;2286;51.570;7.090;2023-04-06T10:07:48;15.40;99.90
4548;DHT22;2286;51.570;7.090;2023-04-06T10:10:19;16.20;99.90
4548;DHT22;2286;51.570;7.090;2023-04-06T10:12:47;16.80;99.90
4548;DHT22;2286;51.570;7.090;2023-04-06T10:15:15;16.80;99.90
4548;DHT22;2286;51.570;7.090;2023-04-06T10:17:42;16.40;99.90
4548;DHT22;2286;51.570;7.090;2023-04-06T10:20:20;16.40;99.90
4548;DHT22;2286;51.570;7.090;2023-04-06T10:22:54;16.80;99.90
4548;DHT22;2286;51.570;7.090;2023-04-06T10:25:31;16.30;99.90
4548;DHT22;2286;51.570;7.090;2023-04-06T10:28:04;16.40;99.90
4548;DHT22;2286;51.570;7.090;2023-04-06T10:30:33;16.20;99.90
4548;DHT22;2286;51.570;7.090;2023-04-06T10:33:01;16.20;99.90
4548;DHT22;2286;51.570;7.090;2023-04-06T10:35:39;16.00;99.90
4548;DHT22;2286;51.570;7.090;2023-04-06T10:38:06;16.00;99.90
4548;DHT22;2286;51.570;7.090;2023-04-06T10:40:37;15.80;99.90
4548;DHT22;2286;51.570;7.090;2023-04-06T10:43:09;15.70;99.90
4548;DHT22;2286;51.570;7.090;2023-04-06T10:45:36;16.00;99.90
4548;DHT22;2286;51.570;7.090;2023-04-06T10:48:13;16.10;99.90
4548;DHT22;2286;51.570;7.090;2023-04-06T10:50:42;15.90;99.90
4548;DHT22;2286;51.570;7.090;2023-04-06T10:53:10;16.70;99.90
4548;DHT22;2286;51.570;7.090;2023-04-06T10:55:40;17.40;99.90
4548;DHT22;2286;51.570;7.090;2023-04-06T10:58:08;17.20;99.90
4548;DHT22;2286;51.570;7.090;2023-04-06T11:00:35;17.20;99.90
4548;DHT22;2286;51.570;7.090;2023-04-06T11:03:02;17.80;99.90
4548;DHT22;2286;51.570;7.090;2023-04-06T11:05:30;18.40;99.90
4548;DHT22;2286;51.570;7.090;2023-04-06T11:07:57;19.00;99.90
4548;DHT22;2286;51.570;7.090;2023-04-06T11:10:24;19.60;99.90
4548;DHT22;2286;51.570;7.090;2023-04-06T11:12:56;19.40;99.90
4548;DHT22;2286;51.570;7.090;2023-04-06T11:15:23;19.90;99.90
4548;DHT22;2286;51.570;7.090;2023-04-06T11:17:50;20.70;99.90
4548;DHT22;2286;51.570;7.090;2023-04-06T11:20:18;20.30;99.90
4548;DHT22;2286;51.570;7.090;2023-04-06T11:22:49;20.10;99.90
4548;DHT22;2286;51.570;7.090;2023-04-06T11:25:17;19.90;99.90
4548;DHT22;2286;51.570;7.090;2023-04-06T11:27:46;19.00;99.40
4548;DHT22;2286;51.570;7.090;2023-04-06T11:30:15;18.70;98.00
4548;DHT22;2286;51.570;7.090;2023-04-06T11:32:43;18.60;97.50
4548;DHT22;2286;51.570;7.090;2023-04-06T11:35:20;18.20;97.00
4548;DHT22;2286;51.570;7.090;2023-04-06T11:37:48;18.30;97.10
4548;DHT22;2286;51.570;7.090;2023-04-06T11:40:21;18.30;97.10
4548;DHT22;2286;51.570;7.090;2023-04-06T11:42:52;18.10;95.70
4548;DHT22;2286;51.570;7.090;2023-04-06T11:45:22;18.30;97.30
4548;DHT22;2286;51.570;7.090;2023-04-06T11:47:55;17.60;94.10
4548;DHT22;2286;51.570;7.090;2023-04-06T11:50:24;17.40;94.10
4548;DHT22;2286;51.570;7.090;2023-04-06T11:52:58;18.10;96.20
4548;DHT22;2286;51.570;7.090;2023-04-06T11:55:26;17.60;94.90
4548;DHT22;2286;51.570;7.090;2023-04-06T11:57:53;17.60;94.20
4548;DHT22;2286;51.570;7.090;2023-04-06T12:00:22;17.50;94.00
4548;DHT22;2286;51.570;7.090;2023-04-06T12:02:49;17.40;93.50
4548;DHT22;2286;51.570;7.090;2023-04-06T12:05:16;17.50;94.30
4548;DHT22;2286;51.570;7.090;2023-04-06T12:07:43;17.90;95.60
4548;DHT22;2286;51.570;7.090;2023-04-06T12:10:11;18.40;96.60
4548;DHT22;2286;51.570;7.090;2023-04-06T12:12:40;18.50;96.40
4548;DHT22;2286;51.570;7.090;2023-04-06T12:15:08;18.20;96.90
4548;DHT22;2286;51.570;7.090;2023-04-06T12:17:37;17.90;94.50
4548;DHT22;2286;51.570;7.090;2023-04-06T12:20:05;17.60;94.10
4548;DHT22;2286;51.570;7.090;2023-04-06T12:22:32;17.70;94.40
4548;DHT22;2286;51.570;7.090;2023-04-06T12:24:59;17.80;94.00
4548;DHT22;2286;51.570;7.090;2023-04-06T12:27:26;17.70;93.90
4548;DHT22;2286;51.570;7.090;2023-04-06T12:29:53;17.80;94.20
4548;DHT22;2286;51.570;7.090;2023-04-06T12:32:21;17.60;93.70
4548;DHT22;2286;51.570;7.090;2023-04-06T12:34:51;17.10;91.50
4548;DHT22;2286;51.570;7.090;2023-04-06T12:37:19;16.60;90.60
4548;DHT22;2286;51.570;7.090;2023-04-06T12:39:46;17.00;92.60
4548;DHT22;2286;51.570;7.090;2023-04-06T12:42:13;17.30;92.70
4548;DHT22;2286;51.570;7.090;2023-04-06T12:44:41;17.00;92.30
4548;DHT22;2286;51.570;7.090;2023-04-06T12:47:08;16.80;91.60
4548;DHT22;2286;51.570;7.090;2023-04-06T12:49:36;16.60;90.80
4548;DHT22;2286;51.570;7.090;2023-04-06T12:52:05;16.50;90.50
4548;DHT22;2286;51.570;7.090;2023-04-06T12:54:32;16.20;88.90
4548;DHT22;2286;51.570;7.090;2023-04-06T12:56:59;16.50;99.90
4548;DHT22;2286;51.570;7.090;2023-04-06T12:59:26;16.50;90.60
4548;DHT22;2286;51.570;7.090;2023-04-06T13:02:00;16.20;89.30
4548;DHT22;2286;51.570;7.090;2023-04-06T13:04:27;15.90;88.70
4548;DHT22;2286;51.570;7.090;2023-04-06T13:06:54;15.10;85.80
4548;DHT22;2286;51.570;7.090;2023-04-06T13:09:23;15.00;84.60
4548;DHT22;2286;51.570;7.090;2023-04-06T13:11:50;15.10;87.20
4548;DHT22;2286;51.570;7.090;2023-04-06T13:14:17;15.00;86.10
4548;DHT22;2286;51.570;7.090;2023-04-06T13:16:44;15.00;87.60
4548;DHT22;2286;51.570;7.090;2023-04-06T13:19:12;15.20;88.80
4548;DHT22;2286;51.570;7.090;2023-04-06T13:21:39;15.10;88.10
4548;DHT22;2286;51.570;7.090;2023-04-06T13:24:06;14.80;86.10
4548;DHT22;2286;51.570;7.090;2023-04-06T13:26:35;14.40;85.00
4548;DHT22;2286;51.570;7.090;2023-04-06T13:29:03;14.40;85.50
4548;DHT22;2286;51.570;7.090;2023-04-06T13:31:30;14.30;85.30
4548;DHT22;2286;51.570;7.090;2023-04-06T13:33:57;14.30;87.10
4548;DHT22;2286;51.570;7.090;2023-04-06T13:36:25;14.40;87.40
4548;DHT22;2286;51.570;7.090;2023-04-06T13:38:53;14.50;87.80
4548;DHT22;2286;51.570;7.090;2023-04-06T13:41:22;14.50;87.70
4548;DHT22;2286;51.570;7.090;2023-04-06T13:43:52;14.40;87.00
4548;DHT22;2286;51.570;7.090;2023-04-06T13:46:19;14.30;86.60
4548;DHT22;2286;51.570;7.090;2023-04-06T13:48:46;14.30;88.40
4548;DHT22;2286;51.570;7.090;2023-04-06T13:51:14;14.10;86.10
4548;DHT22;2286;51.570;7.090;2023-04-06T13:53:41;14.00;85.40
4548;DHT22;2286;51.570;7.090;2023-04-06T13:56:08;14.10;87.40
4548;DHT22;2286;51.570;7.090;2023-04-06T13:58:36;14.30;88.40
4548;DHT22;2286;51.570;7.090;2023-04-06T14:01:05;14.30;87.80
4548;DHT22;2286;51.570;7.090;2023-04-06T14:03:33;14.20;87.70
4548;DHT22;2286;51.570;7.090;2023-04-06T14:06:00;13.90;85.30
4548;DHT22;2286;51.570;7.090;2023-04-06T14:08:27;14.00;87.90
4548;DHT22;2286;51.570;7.090;2023-04-06T14:10:54;13.80;88.30
4548;DHT22;2286;51.570;7.090;2023-04-06T14:13:22;13.70;88.10
4548;DHT22;2286;51.570;7.090;2023-04-06T14:15:53;13.30;85.80
4548;DHT22;2286;51.570;7.090;2023-04-06T14:18:22;13.10;87.20
4548;DHT22;2286;51.570;7.090;2023-04-06T14:20:54;13.20;88.20
4548;DHT22;2286;51.570;7.090;2023-04-06T14:23:21;13.10;88.10
4548;DHT22;2286;51.570;7.090;2023-04-06T14:25:48;13.30;89.40
4548;DHT22;2286;51.570;7.090;2023-04-06T14:28:15;13.20;90.40
4548;DHT22;2286;51.570;7.090;2023-04-06T14:30:43;13.20;91.30
4548;DHT22;2286;51.570;7.090;2023-04-06T14:33:10;13.10;91.40
4548;DHT22;2286;51.570;7.090;2023-04-06T14:35:39;13.00;91.50
4548;DHT22;2286;51.570;7.090;2023-04-06T14:38:06;12.80;91.60
4548;DHT22;2286;51.570;7.090;2023-04-06T14:40:35;12.60;91.60
4548;DHT22;2286;51.570;7.090;2023-04-06T14:43:02;12.50;92.40
4548;DHT22;2286;51.570;7.090;2023-04-06T14:45:33;12.50;92.00
4548;DHT22;2286;51.570;7.090;2023-04-06T14:48:02;12.40;93.00
4548;DHT22;2286;51.570;7.090;2023-04-06T14:50:31;12.20;92.80
4548;DHT22;2286;51.570;7.090;2023-04-06T14:52:59;12.20;93.30
4548;DHT22;2286;51.570;7.090;2023-04-06T14:55:27;12.20;93.90
4548;DHT22;2286;51.570;7.090;2023-04-06T14:57:54;12.30;95.00
4548;DHT22;2286;51.570;7.090;2023-04-06T15:00:21;12.30;95.10
4548;DHT22;2286;51.570;7.090;2023-04-06T15:02:48;12.50;95.40
4548;DHT22;2286;51.570;7.090;2023-04-06T15:05:15;12.50;96.30
4548;DHT22;2286;51.570;7.090;2023-04-06T15:07:42;12.40;96.70
4548;DHT22;2286;51.570;7.090;2023-04-06T15:10:11;12.40;97.50
4548;DHT22;2286;51.570;7.090;2023-04-06T15:12:38;12.40;98.10
4548;DHT22;2286;51.570;7.090;2023-04-06T15:15:06;12.40;98.30
4548;DHT22;2286;51.570;7.090;2023-04-06T15:17:33;12.20;98.50
4548;DHT22;2286;51.570;7.090;2023-04-06T15:20:00;12.20;99.50
4548;DHT22;2286;51.570;7.090;2023-04-06T15:22:28;12.10;99.60
4548;DHT22;2286;51.570;7.090;2023-04-06T15:24:55;12.10;99.90
4548;DHT22;2286;51.570;7.090;2023-04-06T15:27:23;12.10;99.90
4548;DHT22;2286;51.570;7.090;2023-04-06T15:29:50;12.10;99.90
4548;DHT22;2286;51.570;7.090;2023-04-06T15:32:17;12.10;99.90
4548;DHT22;2286;51.570;7.090;2023-04-06T15:34:44;12.10;99.90
4548;DHT22;2286;51.570;7.090;2023-04-06T15:37:11;12.10;99.90
4548;DHT22;2286;51.570;7.090;2023-04-06T15:39:38;12.00;99.90
4548;DHT22;2286;51.570;7.090;2023-04-06T15:42:05;11.90;99.90
4548;DHT22;2286;51.570;7.090;2023-04-06T15:44:34;11.80;99.90
4548;DHT22;2286;51.570;7.090;2023-04-06T15:47:01;11.80;99.90
4548;DHT22;2286;51.570;7.090;2023-04-06T15:49:28;11.90;99.90
4548;DHT22;2286;51.570;7.090;2023-04-06T15:51:55;12.00;99.90
4548;DHT22;2286;51.570;7.090;2023-04-06T15:54:22;12.00;99.90
4548;DHT22;2286;51.570;7.090;2023-04-06T15:56:49;11.90;99.90
4548;DHT22;2286;51.570;7.090;2023-04-06T15:59:16;11.90;99.90
4548;DHT22;2286;51.570;7.090;2023-04-06T16:01:46;11.80;99.90
4548;DHT22;2286;51.570;7.090;2023-04-06T16:04:13;11.60;99.90
4548;DHT22;2286;51.570;7.090;2023-04-06T16:06:40;11.50;99.90
4548;DHT22;2286;51.570;7.090;2023-04-06T16:09:07;11.30;99.90
4548;DHT22;2286;51.570;7.090;2023-04-06T16:11:34;11.10;99.90
4548;DHT22;2286;51.570;7.090;2023-04-06T16:14:01;10.90;99.90
4548;DHT22;2286;51.570;7.090;2023-04-06T16:16:28;10.70;99.90
4548;DHT22;2286;51.570;7.090;2023-04-06T16:18:57;10.50;99.90
4548;DHT22;2286;51.570;7.090;2023-04-06T16:21:24;10.30;99.90
4548;DHT22;2286;51.570;7.090;2023-04-06T16:23:52;10.10;99.90
4548;DHT22;2286;51.570;7.090;2023-04-06T16:26:20;10.00;99.90
4548;DHT22;2286;51.570;7.090;2023-04-06T16:28:48;9.90;99.90
4548;DHT22;2286;51.570;7.090;2023-04-06T16:31:17;9.80;99.90
4548;DHT22;2286;51.570;7.090;2023-04-06T16:33:45;9.80;99.90
4548;DHT22;2286;51.570;7.090;2023-04-06T16:36:14;9.70;99.90
4548;DHT22;2286;51.570;7.090;2023-04-06T16:38:41;9.60;99.90
4548;DHT22;2286;51.570;7.090;2023-04-06T16:41:08;9.60;99.90
4548;DHT22;2286;51.570;7.090;2023-04-06T16:43:35;9.50;99.90
4548;DHT22;2286;51.570;7.090;2023-04-06T16:46:02;9.50;99.90
4548;DHT22;2286;51.570;7.090;2023-04-06T16:48:29;9.50;99.90
4548;DHT22;2286;51.570;7.090;2023-04-06T16:50:56;9.40;99.90
4548;DHT22;2286;51.570;7.090;2023-04-06T16:53:24;9.30;1.00
4548;DHT22;2286;51.570;7.090;2023-04-06T16:55:51;9.30;1.00
4548;DHT22;2286;51.570;7.090;2023-04-06T16:58:18;9.30;1.00
4548;DHT22;2286;51.570;7.090;2023-04-06T17:00:45;9.20;1.00
4548;DHT22;2286;51.570;7.090;2023-04-06T17:03:12;9.10;1.00
4548;DHT22;2286;51.570;7.090;2023-04-06T17:05:39;9.10;1.00
4548;DHT22;2286;51.570;7.090;2023-04-06T17:08:06;9.00;1.00
4548;DHT22;2286;51.570;7.090;2023-04-06T17:10:34;8.90;1.00
4548;DHT22;2286;51.570;7.090;2023-04-06T17:13:01;8.80;1.00
4548;DHT22;2286;51.570;7.090;2023-04-06T17:15:28;8.80;37.30
4548;DHT22;2286;51.570;7.090;2023-04-06T17:17:56;8.70;94.50
4548;DHT22;2286;51.570;7.090;2023-04-06T17:20:23;8.60;96.90
4548;DHT22;2286;51.570;7.090;2023-04-06T17:22:50;8.50;99.90
4548;DHT22;2286;51.570;7.090;2023-04-06T17:25:17;8.50;99.90
4548;DHT22;2286;51.570;7.090;2023-04-06T17:27:46;8.50;99.90
4548;DHT22;2286;51.570;7.090;2023-04-06T17:30:13;8.40;99.90
4548;DHT22;2286;51.570;7.090;2023-04-06T17:32:40;8.40;1.00
4548;DHT22;2286;51.570;7.090;2023-04-06T17:35:09;8.30;1.00
4548;DHT22;2286;51.570;7.090;2023-04-06T17:37:37;8.30;1.00
4548;DHT22;2286;51.570;7.090;2023-04-06T17:40:06;8.30;1.00
4548;DHT22;2286;51.570;7.090;2023-04-06T17:42:33;8.30;33.70
4548;DHT22;2286;51.570;7.090;2023-04-06T17:45:02;8.20;99.90
4548;DHT22;2286;51.570;7.090;2023-04-06T17:47:29;8.20;99.90
4548;DHT22;2286;51.570;7.090;2023-04-06T17:49:57;8.20;99.90
4548;DHT22;2286;51.570;7.090;2023-04-06T17:52:25;8.20;1.00
4548;DHT22;2286;51.570;7.090;2023-04-06T17:54:52;8.10;1.00
4548;DHT22;2286;51.570;7.090;2023-04-06T17:57:19;8.10;1.00
4548;DHT22;2286;51.570;7.090;2023-04-06T17:59:46;8.10;63.10